Airfield :







YOU CAN JOIN US ON...

 
LOGIN :

Register | Disclaimer

   EN    FR    IT 

 









Legend :    VFR   Marginal VFR   IFR   Intensive IFR   Very Intensive IFR
Visi :
Ceiling :
>= 8 km
>= 3000ft
5 to 8 km
1000 to 3000 ft
1500m to 5 km
500 to 1000 ft
800 to 1500m
200 to 500 ft
< 800m
< 200 ft
Symbols :   Thunderstorms  Fog  Heavy snow  Heavy precipitations  Wind > 20 kt






- Airport Elevation : 792 ft
- IATA code : YSC


CYSC - Sherbrooke

CURRENT METAR :
  • 192200Z AUTO 28011KT 9SM SCT240 23/12 A3005 RMK SLP179 DENSITY ALT 1800FT

EXPIRED METARs :
  • 192100Z AUTO 27011KT 230V310 9SM FEW055 SCT250 24/12 A3005 RMK SLP179 DENSITY ALT 1900FT
  • 192000Z AUTO 28007KT 9SM FEW050 SCT055 BKN070 BKN250 23/13 A3005 RMK SLP180 DENSITY ALT 1800FT
  • 191900Z AUTO 27007KT 9SM FEW250 23/13 A3006 RMK SLP183 DENSITY ALT 1800FT
  • 191800Z AUTO 26011KT 9SM SCT049 BKN071 BKN240 24/13 A3007 RMK SLP185 DENSITY ALT 1900FT
  • 191700Z AUTO 27007G15KT 240V300 9SM SCT047 SCT055 BKN240 23/13 A3008 RMK SLP187 DENSITY ALT 1800FT

TAF TAF CYSC
Valid from the 19 at 18:00 until the 20 at 03:00 UTC


191740Z 1918/2003 28008G28KT P6SM SCT050 SCT250
FM200000 26005KT P6SM SKC RMK FCST BASED ON AUTO OBS. NXT FCST BY 200000Z
CZUL FIR / North America



MET'MAP, your aeronautical weather chart ! - Copyright ORBIFLY December 2007 - Disclaimer

ORBIFLY MET'MAP TEAM :

Programming & Development : Alexandra Zaïnal
Original concept : Baudouin d'Aumeries
Technical & hardware support : Manuel Goepfert
Assistance : Marc-Olivier Méhu




SOURCES & CREDITS :

   NOAA